sensor_id;sensor_type;location;lat;lon;timestamp;P1;durP1;ratioP1;P2;durP2;ratioP2
5754;SDS011;2902;42.130;24.732;2023-06-22T00:00:00;12.50;;;8.80;;
5754;SDS011;2902;42.130;24.732;2023-06-22T00:02:33;8.73;;;7.93;;
5754;SDS011;2902;42.130;24.732;2023-06-22T00:04:59;8.60;;;7.80;;
5754;SDS011;2902;42.130;24.732;2023-06-22T00:07:26;8.87;;;8.00;;
5754;SDS011;2902;42.130;24.732;2023-06-22T00:09:53;12.67;;;8.20;;
5754;SDS011;2902;42.130;24.732;2023-06-22T00:12:19;8.60;;;7.90;;
5754;SDS011;2902;42.130;24.732;2023-06-22T00:14:46;9.20;;;8.37;;
5754;SDS011;2902;42.130;24.732;2023-06-22T00:17:14;9.53;;;8.83;;
5754;SDS011;2902;42.130;24.732;2023-06-22T00:19:41;8.87;;;8.37;;
5754;SDS011;2902;42.130;24.732;2023-06-22T00:22:07;8.87;;;8.17;;
5754;SDS011;2902;42.130;24.732;2023-06-22T00:24:34;12.17;;;9.87;;
5754;SDS011;2902;42.130;24.732;2023-06-22T00:27:01;10.33;;;9.23;;
5754;SDS011;2902;42.130;24.732;2023-06-22T00:29:28;10.47;;;9.50;;
5754;SDS011;2902;42.130;24.732;2023-06-22T00:31:54;10.63;;;9.73;;
5754;SDS011;2902;42.130;24.732;2023-06-22T00:34:22;10.77;;;9.80;;
5754;SDS011;2902;42.130;24.732;2023-06-22T00:36:49;10.63;;;9.97;;
5754;SDS011;2902;42.130;24.732;2023-06-22T00:39:16;9.67;;;8.77;;
5754;SDS011;2902;42.130;24.732;2023-06-22T00:41:43;10.37;;;9.47;;
5754;SDS011;2902;42.130;24.732;2023-06-22T00:44:10;9.90;;;9.07;;
5754;SDS011;2902;42.130;24.732;2023-06-22T00:46:37;11.40;;;10.50;;
5754;SDS011;2902;42.130;24.732;2023-06-22T00:49:04;11.33;;;10.33;;
5754;SDS011;2902;42.130;24.732;2023-06-22T00:51:32;10.63;;;9.70;;
5754;SDS011;2902;42.130;24.732;2023-06-22T00:54:03;11.17;;;10.27;;
5754;SDS011;2902;42.130;24.732;2023-06-22T00:56:31;11.73;;;10.70;;
5754;SDS011;2902;42.130;24.732;2023-06-22T00:58:58;11.63;;;10.63;;
5754;SDS011;2902;42.130;24.732;2023-06-22T01:01:28;11.43;;;10.40;;
5754;SDS011;2902;42.130;24.732;2023-06-22T01:03:55;11.07;;;10.07;;
5754;SDS011;2902;42.130;24.732;2023-06-22T01:06:25;11.13;;;10.13;;
5754;SDS011;2902;42.130;24.732;2023-06-22T01:09:00;11.10;;;10.03;;
5754;SDS011;2902;42.130;24.732;2023-06-22T01:11:35;11.40;;;10.50;;
5754;SDS011;2902;42.130;24.732;2023-06-22T01:14:06;11.00;;;10.30;;
5754;SDS011;2902;42.130;24.732;2023-06-22T01:16:38;10.57;;;9.63;;
5754;SDS011;2902;42.130;24.732;2023-06-22T01:19:09;12.50;;;11.47;;
5754;SDS011;2902;42.130;24.732;2023-06-22T01:21:52;11.37;;;10.30;;
5754;SDS011;2902;42.130;24.732;2023-06-22T01:24:24;12.80;;;11.83;;
5754;SDS011;2902;42.130;24.732;2023-06-22T01:26:59;12.70;;;11.33;;
5754;SDS011;2902;42.130;24.732;2023-06-22T01:29:36;11.97;;;11.27;;
5754;SDS011;2902;42.130;24.732;2023-06-22T01:32:04;11.10;;;10.27;;
5754;SDS011;2902;42.130;24.732;2023-06-22T01:34:32;11.37;;;10.37;;
5754;SDS011;2902;42.130;24.732;2023-06-22T01:37:00;12.17;;;10.53;;
5754;SDS011;2902;42.130;24.732;2023-06-22T01:39:28;11.33;;;10.40;;
5754;SDS011;2902;42.130;24.732;2023-06-22T01:41:56;9.93;;;9.33;;
5754;SDS011;2902;42.130;24.732;2023-06-22T01:44:23;11.50;;;9.80;;
5754;SDS011;2902;42.130;24.732;2023-06-22T01:46:53;12.03;;;10.57;;
5754;SDS011;2902;42.130;24.732;2023-06-22T01:49:19;11.47;;;9.73;;
5754;SDS011;2902;42.130;24.732;2023-06-22T01:51:47;12.80;;;10.90;;
5754;SDS011;2902;42.130;24.732;2023-06-22T01:54:13;12.43;;;11.43;;
5754;SDS011;2902;42.130;24.732;2023-06-22T01:56:40;12.07;;;11.27;;
5754;SDS011;2902;42.130;24.732;2023-06-22T01:59:08;11.03;;;10.23;;
5754;SDS011;2902;42.130;24.732;2023-06-22T02:01:39;12.60;;;10.73;;
5754;SDS011;2902;42.130;24.732;2023-06-22T02:04:13;13.43;;;11.90;;
5754;SDS011;2902;42.130;24.732;2023-06-22T02:06:45;12.43;;;11.53;;
5754;SDS011;2902;42.130;24.732;2023-06-22T02:09:15;11.50;;;10.50;;
5754;SDS011;2902;42.130;24.732;2023-06-22T02:11:44;10.47;;;9.77;;
5754;SDS011;2902;42.130;24.732;2023-06-22T02:14:13;10.13;;;9.43;;
5754;SDS011;2902;42.130;24.732;2023-06-22T02:16:40;11.27;;;10.27;;
5754;SDS011;2902;42.130;24.732;2023-06-22T02:19:08;10.57;;;9.83;;
5754;SDS011;2902;42.130;24.732;2023-06-22T02:21:36;10.60;;;9.90;;
5754;SDS011;2902;42.130;24.732;2023-06-22T02:24:03;11.00;;;9.93;;
5754;SDS011;2902;42.130;24.732;2023-06-22T02:26:30;10.53;;;9.63;;
5754;SDS011;2902;42.130;24.732;2023-06-22T02:28:59;10.13;;;9.27;;
5754;SDS011;2902;42.130;24.732;2023-06-22T02:31:26;10.17;;;9.47;;
5754;SDS011;2902;42.130;24.732;2023-06-22T02:33:55;10.73;;;9.73;;
5754;SDS011;2902;42.130;24.732;2023-06-22T02:36:23;10.07;;;9.37;;
5754;SDS011;2902;42.130;24.732;2023-06-22T02:38:53;11.13;;;10.37;;
5754;SDS011;2902;42.130;24.732;2023-06-22T02:41:25;10.63;;;10.03;;
5754;SDS011;2902;42.130;24.732;2023-06-22T02:43:52;10.63;;;9.93;;
5754;SDS011;2902;42.130;24.732;2023-06-22T02:46:19;11.83;;;10.87;;
5754;SDS011;2902;42.130;24.732;2023-06-22T02:48:46;10.03;;;9.33;;
5754;SDS011;2902;42.130;24.732;2023-06-22T02:51:13;11.37;;;10.30;;
5754;SDS011;2902;42.130;24.732;2023-06-22T02:53:40;11.60;;;10.60;;
5754;SDS011;2902;42.130;24.732;2023-06-22T02:56:11;14.33;;;10.90;;
5754;SDS011;2902;42.130;24.732;2023-06-22T02:58:38;11.00;;;9.87;;
5754;SDS011;2902;42.130;24.732;2023-06-22T03:01:04;12.80;;;10.97;;
5754;SDS011;2902;42.130;24.732;2023-06-22T03:03:31;12.40;;;10.93;;
5754;SDS011;2902;42.130;24.732;2023-06-22T03:05:58;12.23;;;10.90;;
5754;SDS011;2902;42.130;24.732;2023-06-22T03:08:26;11.70;;;10.80;;
5754;SDS011;2902;42.130;24.732;2023-06-22T03:10:53;10.97;;;10.17;;
5754;SDS011;2902;42.130;24.732;2023-06-22T03:13:21;13.10;;;9.83;;
5754;SDS011;2902;42.130;24.732;2023-06-22T03:15:48;10.03;;;9.33;;
5754;SDS011;2902;42.130;24.732;2023-06-22T03:18:15;9.63;;;9.03;;
5754;SDS011;2902;42.130;24.732;2023-06-22T03:20:41;9.30;;;8.40;;
5754;SDS011;2902;42.130;24.732;2023-06-22T03:23:08;8.97;;;8.20;;
5754;SDS011;2902;42.130;24.732;2023-06-22T03:25:35;10.00;;;9.30;;
5754;SDS011;2902;42.130;24.732;2023-06-22T03:28:02;8.40;;;7.50;;
5754;SDS011;2902;42.130;24.732;2023-06-22T03:30:30;8.80;;;8.07;;
5754;SDS011;2902;42.130;24.732;2023-06-22T03:32:56;9.80;;;8.73;;
5754;SDS011;2902;42.130;24.732;2023-06-22T03:35:23;8.83;;;8.07;;
5754;SDS011;2902;42.130;24.732;2023-06-22T03:37:50;8.87;;;8.17;;
5754;SDS011;2902;42.130;24.732;2023-06-22T03:40:16;10.07;;;9.07;;
5754;SDS011;2902;42.130;24.732;2023-06-22T03:42:43;10.50;;;9.70;;
5754;SDS011;2902;42.130;24.732;2023-06-22T03:45:10;10.27;;;9.40;;
5754;SDS011;2902;42.130;24.732;2023-06-22T03:47:38;10.80;;;10.03;;
5754;SDS011;2902;42.130;24.732;2023-06-22T03:50:05;15.83;;;11.40;;
5754;SDS011;2902;42.130;24.732;2023-06-22T03:52:32;11.47;;;10.63;;
5754;SDS011;2902;42.130;24.732;2023-06-22T03:54:59;11.53;;;10.77;;
5754;SDS011;2902;42.130;24.732;2023-06-22T03:57:26;11.80;;;10.90;;
5754;SDS011;2902;42.130;24.732;2023-06-22T03:59:54;16.57;;;11.20;;
5754;SDS011;2902;42.130;24.732;2023-06-22T04:02:22;11.53;;;10.57;;
5754;SDS011;2902;42.130;24.732;2023-06-22T04:04:50;11.63;;;10.50;;
5754;SDS011;2902;42.130;24.732;2023-06-22T04:07:17;13.33;;;10.33;;
5754;SDS011;2902;42.130;24.732;2023-06-22T04:09:44;11.77;;;10.53;;
5754;SDS011;2902;42.130;24.732;2023-06-22T04:12:10;11.93;;;10.43;;
5754;SDS011;2902;42.130;24.732;2023-06-22T04:14:37;12.00;;;9.77;;
5754;SDS011;2902;42.130;24.732;2023-06-22T04:17:04;16.93;;;9.40;;
5754;SDS011;2902;42.130;24.732;2023-06-22T04:19:31;17.57;;;9.97;;
5754;SDS011;2902;42.130;24.732;2023-06-22T04:21:59;13.23;;;9.50;;
5754;SDS011;2902;42.130;24.732;2023-06-22T04:24:25;10.67;;;9.50;;
5754;SDS011;2902;42.130;24.732;2023-06-22T04:26:52;10.10;;;9.20;;
5754;SDS011;2902;42.130;24.732;2023-06-22T04:29:19;10.23;;;8.67;;
5754;SDS011;2902;42.130;24.732;2023-06-22T04:31:53;9.23;;;8.17;;
5754;SDS011;2902;42.130;24.732;2023-06-22T04:34:22;10.40;;;9.23;;
5754;SDS011;2902;42.130;24.732;2023-06-22T04:36:51;10.90;;;8.53;;
5754;SDS011;2902;42.130;24.732;2023-06-22T04:39:19;12.07;;;9.17;;
5754;SDS011;2902;42.130;24.732;2023-06-22T04:41:46;9.57;;;8.80;;
5754;SDS011;2902;42.130;24.732;2023-06-22T04:44:14;10.43;;;9.17;;
5754;SDS011;2902;42.130;24.732;2023-06-22T04:46:48;11.23;;;9.63;;
5754;SDS011;2902;42.130;24.732;2023-06-22T04:49:19;10.53;;;8.70;;
5754;SDS011;2902;42.130;24.732;2023-06-22T04:51:47;12.90;;;9.27;;
5754;SDS011;2902;42.130;24.732;2023-06-22T04:54:13;15.13;;;9.50;;
5754;SDS011;2902;42.130;24.732;2023-06-22T04:56:42;11.33;;;9.23;;
5754;SDS011;2902;42.130;24.732;2023-06-22T04:59:11;20.43;;;9.70;;
5754;SDS011;2902;42.130;24.732;2023-06-22T05:01:38;9.27;;;8.57;;
5754;SDS011;2902;42.130;24.732;2023-06-22T05:04:05;9.93;;;8.90;;
5754;SDS011;2902;42.130;24.732;2023-06-22T05:06:32;23.13;;;9.30;;
5754;SDS011;2902;42.130;24.732;2023-06-22T05:08:59;12.13;;;8.97;;
5754;SDS011;2902;42.130;24.732;2023-06-22T05:11:26;12.73;;;7.77;;
5754;SDS011;2902;42.130;24.732;2023-06-22T05:13:54;17.25;;;7.15;;
5754;SDS011;2902;42.130;24.732;2023-06-22T05:16:22;8.63;;;7.32;;
5754;SDS011;2902;42.130;24.732;2023-06-22T05:18:51;7.63;;;6.82;;
5754;SDS011;2902;42.130;24.732;2023-06-22T05:21:21;9.25;;;8.45;;
5754;SDS011;2902;42.130;24.732;2023-06-22T05:23:48;12.40;;;8.88;;
5754;SDS011;2902;42.130;24.732;2023-06-22T05:26:15;15.05;;;9.15;;
5754;SDS011;2902;42.130;24.732;2023-06-22T05:28:42;15.68;;;8.15;;
5754;SDS011;2902;42.130;24.732;2023-06-22T05:31:12;8.02;;;7.43;;
5754;SDS011;2902;42.130;24.732;2023-06-22T05:33:40;7.82;;;7.22;;
5754;SDS011;2902;42.130;24.732;2023-06-22T05:36:06;17.23;;;8.00;;
5754;SDS011;2902;42.130;24.732;2023-06-22T05:38:33;12.55;;;7.20;;
5754;SDS011;2902;42.130;24.732;2023-06-22T05:41:00;7.45;;;6.75;;
5754;SDS011;2902;42.130;24.732;2023-06-22T05:43:27;10.75;;;7.35;;
5754;SDS011;2902;42.130;24.732;2023-06-22T05:45:54;10.50;;;7.00;;
5754;SDS011;2902;42.130;24.732;2023-06-22T05:48:22;7.75;;;7.25;;
5754;SDS011;2902;42.130;24.732;2023-06-22T05:50:49;7.95;;;7.28;;
5754;SDS011;2902;42.130;24.732;2023-06-22T05:53:15;7.97;;;7.20;;
5754;SDS011;2902;42.130;24.732;2023-06-22T05:55:42;7.22;;;6.72;;
5754;SDS011;2902;42.130;24.732;2023-06-22T05:58:09;8.40;;;7.10;;
5754;SDS011;2902;42.130;24.732;2023-06-22T06:00:36;7.10;;;6.30;;
5754;SDS011;2902;42.130;24.732;2023-06-22T06:03:03;8.25;;;7.13;;
5754;SDS011;2902;42.130;24.732;2023-06-22T06:05:31;7.82;;;7.25;;
5754;SDS011;2902;42.130;24.732;2023-06-22T06:07:58;11.32;;;6.90;;
5754;SDS011;2902;42.130;24.732;2023-06-22T06:10:25;8.15;;;7.03;;
5754;SDS011;2902;42.130;24.732;2023-06-22T06:12:52;7.45;;;6.72;;
5754;SDS011;2902;42.130;24.732;2023-06-22T06:15:19;11.15;;;6.78;;
5754;SDS011;2902;42.130;24.732;2023-06-22T06:17:46;8.15;;;6.70;;
5754;SDS011;2902;42.130;24.732;2023-06-22T06:20:13;7.70;;;7.10;;
5754;SDS011;2902;42.130;24.732;2023-06-22T06:22:41;9.18;;;7.22;;
5754;SDS011;2902;42.130;24.732;2023-06-22T06:25:09;8.02;;;7.18;;
5754;SDS011;2902;42.130;24.732;2023-06-22T06:27:40;7.47;;;6.90;;
5754;SDS011;2902;42.130;24.732;2023-06-22T06:30:08;8.15;;;7.30;;
5754;SDS011;2902;42.130;24.732;2023-06-22T06:32:35;10.95;;;7.15;;
5754;SDS011;2902;42.130;24.732;2023-06-22T06:35:02;7.40;;;6.95;;
5754;SDS011;2902;42.130;24.732;2023-06-22T06:37:29;7.88;;;6.88;;
5754;SDS011;2902;42.130;24.732;2023-06-22T06:39:57;7.45;;;6.85;;
5754;SDS011;2902;42.130;24.732;2023-06-22T06:42:23;7.15;;;6.53;;
5754;SDS011;2902;42.130;24.732;2023-06-22T06:44:50;6.63;;;6.32;;
5754;SDS011;2902;42.130;24.732;2023-06-22T06:47:17;8.45;;;6.53;;
5754;SDS011;2902;42.130;24.732;2023-06-22T06:49:43;7.68;;;7.00;;
5754;SDS011;2902;42.130;24.732;2023-06-22T06:52:10;8.25;;;7.45;;
5754;SDS011;2902;42.130;24.732;2023-06-22T06:54:37;8.00;;;7.50;;
5754;SDS011;2902;42.130;24.732;2023-06-22T06:57:05;13.85;;;7.20;;
5754;SDS011;2902;42.130;24.732;2023-06-22T06:59:32;8.75;;;7.57;;
5754;SDS011;2902;42.130;24.732;2023-06-22T07:01:59;7.95;;;6.93;;
5754;SDS011;2902;42.130;24.732;2023-06-22T07:04:25;7.50;;;6.75;;
5754;SDS011;2902;42.130;24.732;2023-06-22T07:06:52;7.32;;;6.93;;
5754;SDS011;2902;42.130;24.732;2023-06-22T07:09:19;7.43;;;6.85;;
5754;SDS011;2902;42.130;24.732;2023-06-22T07:11:45;7.80;;;6.90;;
5754;SDS011;2902;42.130;24.732;2023-06-22T07:14:13;7.93;;;6.95;;
5754;SDS011;2902;42.130;24.732;2023-06-22T07:16:40;7.05;;;6.50;;
5754;SDS011;2902;42.130;24.732;2023-06-22T07:19:07;12.45;;;7.22;;
5754;SDS011;2902;42.130;24.732;2023-06-22T07:21:33;7.57;;;7.13;;
5754;SDS011;2902;42.130;24.732;2023-06-22T07:24:00;53.60;;;9.45;;
5754;SDS011;2902;42.130;24.732;2023-06-22T07:26:27;7.15;;;6.75;;
5754;SDS011;2902;42.130;24.732;2023-06-22T07:28:53;7.60;;;6.82;;
5754;SDS011;2902;42.130;24.732;2023-06-22T07:31:23;9.45;;;6.97;;
5754;SDS011;2902;42.130;24.732;2023-06-22T07:33:50;6.90;;;6.43;;
5754;SDS011;2902;42.130;24.732;2023-06-22T07:36:17;23.13;;;7.95;;
5754;SDS011;2902;42.130;24.732;2023-06-22T07:38:44;14.63;;;7.22;;
5754;SDS011;2902;42.130;24.732;2023-06-22T07:41:11;8.00;;;6.70;;
5754;SDS011;2902;42.130;24.732;2023-06-22T07:43:39;7.45;;;6.85;;
5754;SDS011;2902;42.130;24.732;2023-06-22T07:46:05;8.35;;;6.28;;
5754;SDS011;2902;42.130;24.732;2023-06-22T07:48:36;9.30;;;6.95;;
5754;SDS011;2902;42.130;24.732;2023-06-22T07:51:03;9.48;;;7.00;;
5754;SDS011;2902;42.130;24.732;2023-06-22T07:53:30;11.70;;;6.20;;
5754;SDS011;2902;42.130;24.732;2023-06-22T07:55:56;6.43;;;6.03;;
5754;SDS011;2902;42.130;24.732;2023-06-22T07:58:23;6.72;;;6.13;;
5754;SDS011;2902;42.130;24.732;2023-06-22T08:00:50;34.13;;;7.65;;
5754;SDS011;2902;42.130;24.732;2023-06-22T08:03:16;5.85;;;5.30;;
5754;SDS011;2902;42.130;24.732;2023-06-22T08:05:44;5.85;;;5.50;;
5754;SDS011;2902;42.130;24.732;2023-06-22T08:08:11;5.88;;;5.40;;
5754;SDS011;2902;42.130;24.732;2023-06-22T08:10:39;6.40;;;5.80;;
5754;SDS011;2902;42.130;24.732;2023-06-22T08:13:07;5.50;;;5.15;;
5754;SDS011;2902;42.130;24.732;2023-06-22T08:15:34;6.00;;;5.60;;
5754;SDS011;2902;42.130;24.732;2023-06-22T08:18:00;6.07;;;5.60;;
5754;SDS011;2902;42.130;24.732;2023-06-22T08:20:27;6.88;;;6.30;;
5754;SDS011;2902;42.130;24.732;2023-06-22T08:22:56;6.82;;;6.05;;
5754;SDS011;2902;42.130;24.732;2023-06-22T08:25:25;8.10;;;5.95;;
5754;SDS011;2902;42.130;24.732;2023-06-22T08:27:52;5.78;;;5.47;;
5754;SDS011;2902;42.130;24.732;2023-06-22T08:30:18;9.27;;;6.60;;
5754;SDS011;2902;42.130;24.732;2023-06-22T08:32:45;16.77;;;6.80;;
5754;SDS011;2902;42.130;24.732;2023-06-22T08:35:12;7.97;;;6.07;;
5754;SDS011;2902;42.130;24.732;2023-06-22T08:37:38;5.93;;;5.55;;
5754;SDS011;2902;42.130;24.732;2023-06-22T08:40:08;10.55;;;7.10;;
5754;SDS011;2902;42.130;24.732;2023-06-22T08:42:35;12.02;;;6.50;;
5754;SDS011;2902;42.130;24.732;2023-06-22T08:45:03;10.98;;;5.85;;
5754;SDS011;2902;42.130;24.732;2023-06-22T08:47:30;6.13;;;5.57;;
5754;SDS011;2902;42.130;24.732;2023-06-22T08:49:57;11.00;;;5.60;;
5754;SDS011;2902;42.130;24.732;2023-06-22T08:52:23;6.20;;;5.78;;
5754;SDS011;2902;42.130;24.732;2023-06-22T08:54:51;5.75;;;5.25;;
5754;SDS011;2902;42.130;24.732;2023-06-22T08:57:19;6.45;;;5.30;;
5754;SDS011;2902;42.130;24.732;2023-06-22T08:59:47;5.70;;;5.45;;
5754;SDS011;2902;42.130;24.732;2023-06-22T09:02:13;5.78;;;5.32;;
5754;SDS011;2902;42.130;24.732;2023-06-22T09:04:40;6.72;;;6.20;;
5754;SDS011;2902;42.130;24.732;2023-06-22T09:07:07;11.70;;;5.88;;
5754;SDS011;2902;42.130;24.732;2023-06-22T09:09:33;8.35;;;5.95;;
5754;SDS011;2902;42.130;24.732;2023-06-22T09:12:00;7.43;;;5.35;;
5754;SDS011;2902;42.130;24.732;2023-06-22T09:14:28;6.60;;;5.45;;
5754;SDS011;2902;42.130;24.732;2023-06-22T09:16:55;6.70;;;6.05;;
5754;SDS011;2902;42.130;24.732;2023-06-22T09:19:22;6.03;;;5.68;;
5754;SDS011;2902;42.130;24.732;2023-06-22T09:21:49;8.02;;;5.75;;
5754;SDS011;2902;42.130;24.732;2023-06-22T09:24:16;5.60;;;5.10;;
5754;SDS011;2902;42.130;24.732;2023-06-22T09:26:42;5.43;;;5.13;;
5754;SDS011;2902;42.130;24.732;2023-06-22T09:29:09;6.35;;;5.45;;
5754;SDS011;2902;42.130;24.732;2023-06-22T09:31:37;7.13;;;5.40;;
5754;SDS011;2902;42.130;24.732;2023-06-22T09:34:04;5.72;;;5.40;;
5754;SDS011;2902;42.130;24.732;2023-06-22T09:36:31;5.35;;;5.07;;
5754;SDS011;2902;42.130;24.732;2023-06-22T09:38:57;10.77;;;6.07;;
5754;SDS011;2902;42.130;24.732;2023-06-22T09:41:24;5.60;;;4.97;;
5754;SDS011;2902;42.130;24.732;2023-06-22T09:43:51;6.10;;;5.70;;
5754;SDS011;2902;42.130;24.732;2023-06-22T09:46:18;5.03;;;4.72;;
5754;SDS011;2902;42.130;24.732;2023-06-22T09:48:48;9.13;;;5.38;;
5754;SDS011;2902;42.130;24.732;2023-06-22T09:51:16;5.80;;;5.50;;
5754;SDS011;2902;42.130;24.732;2023-06-22T09:53:44;6.22;;;5.72;;
5754;SDS011;2902;42.130;24.732;2023-06-22T09:56:10;6.00;;;5.70;;
5754;SDS011;2902;42.130;24.732;2023-06-22T09:58:40;6.50;;;6.10;;
5754;SDS011;2902;42.130;24.732;2023-06-22T10:01:07;6.07;;;5.78;;
5754;SDS011;2902;42.130;24.732;2023-06-22T10:03:33;5.85;;;5.63;;
5754;SDS011;2902;42.130;24.732;2023-06-22T10:06:01;6.15;;;5.72;;
5754;SDS011;2902;42.130;24.732;2023-06-22T10:08:28;6.30;;;6.00;;
5754;SDS011;2902;42.130;24.732;2023-06-22T10:10:55;6.43;;;5.90;;
5754;SDS011;2902;42.130;24.732;2023-06-22T10:13:22;6.07;;;5.78;;
5754;SDS011;2902;42.130;24.732;2023-06-22T10:15:49;6.88;;;6.30;;
5754;SDS011;2902;42.130;24.732;2023-06-22T10:18:17;6.05;;;5.53;;
5754;SDS011;2902;42.130;24.732;2023-06-22T10:20:44;6.07;;;5.63;;
5754;SDS011;2902;42.130;24.732;2023-06-22T10:23:12;5.88;;;5.47;;
5754;SDS011;2902;42.130;24.732;2023-06-22T10:25:39;6.57;;;6.05;;
5754;SDS011;2902;42.130;24.732;2023-06-22T10:28:06;6.15;;;5.50;;
5754;SDS011;2902;42.130;24.732;2023-06-22T10:30:33;6.15;;;5.85;;
5754;SDS011;2902;42.130;24.732;2023-06-22T10:32:59;6.43;;;6.03;;
5754;SDS011;2902;42.130;24.732;2023-06-22T10:35:26;6.78;;;6.15;;
5754;SDS011;2902;42.130;24.732;2023-06-22T10:37:53;6.53;;;5.97;;
5754;SDS011;2902;42.130;24.732;2023-06-22T10:40:22;6.47;;;6.07;;
5754;SDS011;2902;42.130;24.732;2023-06-22T10:42:49;5.82;;;5.55;;
5754;SDS011;2902;42.130;24.732;2023-06-22T10:45:16;15.18;;;6.35;;
5754;SDS011;2902;42.130;24.732;2023-06-22T10:47:43;11.00;;;6.10;;
5754;SDS011;2902;42.130;24.732;2023-06-22T10:50:10;6.38;;;5.97;;
5754;SDS011;2902;42.130;24.732;2023-06-22T10:52:36;7.03;;;5.85;;
5754;SDS011;2902;42.130;24.732;2023-06-22T10:55:03;10.50;;;5.90;;
5754;SDS011;2902;42.130;24.732;2023-06-22T10:57:32;5.53;;;5.32;;
5754;SDS011;2902;42.130;24.732;2023-06-22T10:59:59;6.88;;;5.72;;
5754;SDS011;2902;42.130;24.732;2023-06-22T11:02:26;6.30;;;6.00;;
5754;SDS011;2902;42.130;24.732;2023-06-22T11:04:53;6.07;;;5.78;;
5754;SDS011;2902;42.130;24.732;2023-06-22T11:07:20;6.38;;;6.05;;
5754;SDS011;2902;42.130;24.732;2023-06-22T11:09:47;6.43;;;5.85;;
5754;SDS011;2902;42.130;24.732;2023-06-22T11:12:13;6.95;;;6.35;;
5754;SDS011;2902;42.130;24.732;2023-06-22T11:14:41;6.45;;;5.53;;
5754;SDS011;2902;42.130;24.732;2023-06-22T11:17:08;6.50;;;6.20;;
5754;SDS011;2902;42.130;24.732;2023-06-22T11:19:35;6.50;;;5.93;;
5754;SDS011;2902;42.130;24.732;2023-06-22T11:22:02;6.20;;;5.63;;
5754;SDS011;2902;42.130;24.732;2023-06-22T11:24:28;6.35;;;6.05;;
5754;SDS011;2902;42.130;24.732;2023-06-22T11:26:55;6.10;;;5.80;;
5754;SDS011;2902;42.130;24.732;2023-06-22T11:29:22;6.70;;;6.10;;
5754;SDS011;2902;42.130;24.732;2023-06-22T11:31:50;5.72;;;5.30;;
5754;SDS011;2902;42.130;24.732;2023-06-22T11:34:16;7.45;;;6.15;;
5754;SDS011;2902;42.130;24.732;2023-06-22T11:36:44;30.08;;;7.63;;
5754;SDS011;2902;42.130;24.732;2023-06-22T11:39:12;7.63;;;6.85;;
5754;SDS011;2902;42.130;24.732;2023-06-22T11:41:39;7.47;;;6.65;;
5754;SDS011;2902;42.130;24.732;2023-06-22T11:44:06;7.60;;;6.40;;
5754;SDS011;2902;42.130;24.732;2023-06-22T11:46:33;6.10;;;5.85;;
5754;SDS011;2902;42.130;24.732;2023-06-22T11:49:01;7.78;;;6.75;;
5754;SDS011;2902;42.130;24.732;2023-06-22T11:51:28;7.15;;;6.65;;
5754;SDS011;2902;42.130;24.732;2023-06-22T11:53:56;6.70;;;6.20;;
5754;SDS011;2902;42.130;24.732;2023-06-22T11:56:23;6.55;;;6.05;;
5754;SDS011;2902;42.130;24.732;2023-06-22T11:58:49;6.25;;;5.95;;
5754;SDS011;2902;42.130;24.732;2023-06-22T12:01:16;8.63;;;7.85;;
5754;SDS011;2902;42.130;24.732;2023-06-22T12:03:43;6.70;;;6.28;;
5754;SDS011;2902;42.130;24.732;2023-06-22T12:06:11;26.30;;;7.65;;
5754;SDS011;2902;42.130;24.732;2023-06-22T12:08:37;11.10;;;6.57;;
5754;SDS011;2902;42.130;24.732;2023-06-22T12:11:04;7.20;;;6.80;;
5754;SDS011;2902;42.130;24.732;2023-06-22T12:13:31;6.97;;;6.57;;
5754;SDS011;2902;42.130;24.732;2023-06-22T12:15:57;7.20;;;6.68;;
5754;SDS011;2902;42.130;24.732;2023-06-22T12:18:24;6.25;;;5.88;;
5754;SDS011;2902;42.130;24.732;2023-06-22T12:20:51;6.43;;;6.13;;
5754;SDS011;2902;42.130;24.732;2023-06-22T12:23:19;6.07;;;5.85;;
5754;SDS011;2902;42.130;24.732;2023-06-22T12:25:46;6.80;;;6.40;;
5754;SDS011;2902;42.130;24.732;2023-06-22T12:28:12;6.80;;;6.15;;
5754;SDS011;2902;42.130;24.732;2023-06-22T12:30:39;7.45;;;6.75;;
5754;SDS011;2902;42.130;24.732;2023-06-22T12:33:06;8.07;;;7.47;;
5754;SDS011;2902;42.130;24.732;2023-06-22T12:35:33;6.72;;;6.22;;
5754;SDS011;2902;42.130;24.732;2023-06-22T12:38:00;7.05;;;6.40;;
5754;SDS011;2902;42.130;24.732;2023-06-22T12:40:29;6.75;;;6.35;;
5754;SDS011;2902;42.130;24.732;2023-06-22T12:42:56;6.80;;;6.38;;
5754;SDS011;2902;42.130;24.732;2023-06-22T12:45:22;6.63;;;6.07;;
5754;SDS011;2902;42.130;24.732;2023-06-22T12:47:50;6.82;;;6.32;;
5754;SDS011;2902;42.130;24.732;2023-06-22T12:50:17;6.50;;;6.00;;
5754;SDS011;2902;42.130;24.732;2023-06-22T12:52:43;7.20;;;6.45;;
5754;SDS011;2902;42.130;24.732;2023-06-22T12:55:10;7.90;;;6.88;;
5754;SDS011;2902;42.130;24.732;2023-06-22T12:57:38;7.35;;;6.97;;
5754;SDS011;2902;42.130;24.732;2023-06-22T13:00:06;6.97;;;6.35;;
5754;SDS011;2902;42.130;24.732;2023-06-22T13:02:35;6.72;;;6.20;;
5754;SDS011;2902;42.130;24.732;2023-06-22T13:05:02;7.18;;;6.63;;
5754;SDS011;2902;42.130;24.732;2023-06-22T13:07:30;8.57;;;6.32;;
5754;SDS011;2902;42.130;24.732;2023-06-22T13:09:56;7.05;;;6.57;;
5754;SDS011;2902;42.130;24.732;2023-06-22T13:12:23;6.25;;;5.95;;
5754;SDS011;2902;42.130;24.732;2023-06-22T13:14:51;7.25;;;6.55;;
5754;SDS011;2902;42.130;24.732;2023-06-22T13:17:18;6.70;;;6.13;;
5754;SDS011;2902;42.130;24.732;2023-06-22T13:19:45;6.18;;;5.82;;
5754;SDS011;2902;42.130;24.732;2023-06-22T13:22:25;6.93;;;6.35;;
5754;SDS011;2902;42.130;24.732;2023-06-22T13:24:53;7.00;;;6.47;;
5754;SDS011;2902;42.130;24.732;2023-06-22T13:27:20;7.32;;;6.93;;
5754;SDS011;2902;42.130;24.732;2023-06-22T13:29:47;6.70;;;6.30;;
5754;SDS011;2902;42.130;24.732;2023-06-22T13:32:15;7.13;;;6.70;;
5754;SDS011;2902;42.130;24.732;2023-06-22T13:34:42;7.18;;;6.75;;
5754;SDS011;2902;42.130;24.732;2023-06-22T13:37:08;7.07;;;6.57;;
5754;SDS011;2902;42.130;24.732;2023-06-22T13:39:35;8.73;;;6.80;;
5754;SDS011;2902;42.130;24.732;2023-06-22T13:42:02;7.18;;;6.60;;
5754;SDS011;2902;42.130;24.732;2023-06-22T13:44:29;7.22;;;6.63;;
5754;SDS011;2902;42.130;24.732;2023-06-22T13:46:55;8.05;;;6.95;;
5754;SDS011;2902;42.130;24.732;2023-06-22T13:49:24;7.90;;;7.32;;
5754;SDS011;2902;42.130;24.732;2023-06-22T13:51:50;7.60;;;7.00;;
5754;SDS011;2902;42.130;24.732;2023-06-22T13:54:17;7.13;;;6.47;;
5754;SDS011;2902;42.130;24.732;2023-06-22T13:56:44;7.10;;;6.45;;
5754;SDS011;2902;42.130;24.732;2023-06-22T13:59:10;7.95;;;6.75;;
5754;SDS011;2902;42.130;24.732;2023-06-22T14:01:37;7.47;;;6.85;;
5754;SDS011;2902;42.130;24.732;2023-06-22T14:04:05;8.15;;;7.43;;
5754;SDS011;2902;42.130;24.732;2023-06-22T14:06:33;7.55;;;7.05;;
5754;SDS011;2902;42.130;24.732;2023-06-22T14:09:00;13.13;;;7.43;;
5754;SDS011;2902;42.130;24.732;2023-06-22T14:11:26;8.75;;;7.55;;
5754;SDS011;2902;42.130;24.732;2023-06-22T14:13:53;14.18;;;7.95;;
5754;SDS011;2902;42.130;24.732;2023-06-22T14:16:20;18.95;;;7.90;;
5754;SDS011;2902;42.130;24.732;2023-06-22T14:18:46;10.00;;;7.88;;
5754;SDS011;2902;42.130;24.732;2023-06-22T14:21:13;20.75;;;10.32;;
5754;SDS011;2902;42.130;24.732;2023-06-22T14:23:41;20.13;;;9.05;;
5754;SDS011;2902;42.130;24.732;2023-06-22T14:26:12;18.17;;;9.32;;
5754;SDS011;2902;42.130;24.732;2023-06-22T14:28:39;19.20;;;8.67;;
5754;SDS011;2902;42.130;24.732;2023-06-22T14:31:05;21.08;;;10.13;;
5754;SDS011;2902;42.130;24.732;2023-06-22T14:33:32;11.07;;;8.07;;
5754;SDS011;2902;42.130;24.732;2023-06-22T14:35:59;18.90;;;9.13;;
5754;SDS011;2902;42.130;24.732;2023-06-22T14:38:25;29.83;;;9.87;;
5754;SDS011;2902;42.130;24.732;2023-06-22T14:40:54;32.45;;;12.05;;
5754;SDS011;2902;42.130;24.732;2023-06-22T14:43:20;15.18;;;9.27;;
5754;SDS011;2902;42.130;24.732;2023-06-22T14:45:47;12.97;;;8.87;;
5754;SDS011;2902;42.130;24.732;2023-06-22T14:48:14;24.98;;;10.07;;
5754;SDS011;2902;42.130;24.732;2023-06-22T14:50:40;10.02;;;8.40;;
5754;SDS011;2902;42.130;24.732;2023-06-22T14:53:07;11.40;;;7.77;;